Chariton, Iowa
Current Conditions -  °F | °C
As of 5:15 AM on Wednesday 26 Nov 2014 (Local Time) from KCNC Reporting Station
Unknown Precip Unknown Precip  
Wind Chill: 24°   Ceiling: 400
Heat Index: 32°   Visibility: 1.7mi
Dew Point: 25°   Wind: 10mph
Humidity: 75%   Direction: 140°SE
Pressure: 29.88"   Gusts: NA
Location:  41.01°N, 93.31°W
Report Text: KCNC 261115Z AUTO 14009KT 1 3/4SM -UP BKN004 OVC026 M00/M04 A2988 RMK AO2
Loading
Personal Weather Stations






























Interactive Weather Map New forecast layout! Learn more

10-Day Weather Forecast

Advertisements
Track Severe Weather on mobile